createdAt,value
2017-10-09T00:00:25.722Z,68.33
2017-10-09T00:00:57.380Z,68.32
2017-10-09T00:01:29.026Z,68.39
2017-10-09T00:02:00.674Z,68.56
2017-10-09T00:02:32.321Z,68.42
2017-10-09T00:03:03.969Z,68.66
2017-10-09T00:03:35.819Z,68.76
2017-10-09T00:04:07.473Z,68.42
2017-10-09T00:04:39.118Z,68.29
2017-10-09T00:05:10.796Z,68.37
2017-10-09T00:05:42.748Z,68.40
2017-10-09T00:06:14.397Z,68.47
2017-10-09T00:06:46.042Z,68.45
2017-10-09T00:07:17.696Z,68.50
2017-10-09T00:07:49.345Z,68.56
2017-10-09T00:08:20.994Z,68.37
2017-10-09T00:08:52.906Z,68.43
2017-10-09T00:09:24.557Z,68.65
2017-10-09T00:09:56.213Z,68.62
2017-10-09T00:10:28.031Z,68.59
2017-10-09T00:10:59.784Z,68.68
2017-10-09T00:11:31.432Z,68.78
2017-10-09T00:12:03.074Z,68.69
2017-10-09T00:12:34.729Z,68.81
2017-10-09T00:13:06.381Z,68.63
2017-10-09T00:13:38.264Z,68.93
2017-10-09T00:14:09.939Z,68.80
2017-10-09T00:14:41.593Z,68.67
2017-10-09T00:15:13.251Z,68.73
2017-10-09T00:15:45.173Z,68.53
2017-10-09T00:16:16.825Z,68.56
2017-10-09T00:16:48.485Z,68.68
2017-10-09T00:17:20.144Z,68.46
2017-10-09T00:17:52.048Z,68.62
2017-10-09T00:18:23.749Z,68.62
2017-10-09T00:18:55.396Z,68.59
2017-10-09T00:19:27.281Z,68.59
2017-10-09T00:19:59.123Z,68.57
2017-10-09T00:20:30.777Z,68.54
2017-10-09T00:21:02.441Z,68.62
2017-10-09T00:21:34.152Z,68.58
2017-10-09T00:22:05.989Z,68.59
2017-10-09T00:22:37.746Z,68.57
2017-10-09T00:23:09.406Z,68.52
2017-10-09T00:23:41.333Z,68.56
2017-10-09T00:24:12.997Z,68.56
2017-10-09T00:24:44.807Z,68.52
2017-10-09T00:25:16.570Z,68.36
2017-10-09T00:25:48.230Z,68.46
2017-10-09T00:26:19.889Z,68.41
2017-10-09T00:26:51.606Z,68.44
2017-10-09T00:27:23.445Z,68.36
2017-10-09T00:27:55.101Z,68.50
2017-10-09T00:28:26.753Z,68.49
2017-10-09T00:28:58.401Z,68.57
2017-10-09T00:29:30.701Z,68.44
2017-10-09T00:30:02.577Z,68.51
2017-10-09T00:30:34.241Z,68.48
2017-10-09T00:31:05.891Z,68.49
2017-10-09T00:31:37.545Z,68.56
2017-10-09T00:32:09.253Z,68.50
2017-10-09T00:32:40.905Z,68.37
2017-10-09T00:33:12.565Z,68.45
2017-10-09T00:33:44.220Z,68.46
2017-10-09T00:34:16.020Z,68.43
2017-10-09T00:34:47.677Z,68.44
2017-10-09T00:35:19.320Z,68.50
2017-10-09T00:35:50.973Z,68.51
2017-10-09T00:36:22.620Z,68.52
2017-10-09T00:36:54.261Z,68.44
2017-10-09T00:37:25.945Z,68.43
2017-10-09T00:37:57.820Z,68.43
2017-10-09T00:38:29.591Z,68.43
2017-10-09T00:39:01.238Z,68.45
2017-10-09T00:39:32.893Z,68.37
2017-10-09T00:40:04.556Z,68.44
2017-10-09T00:40:36.253Z,68.53
2017-10-09T00:41:07.901Z,68.46
2017-10-09T00:41:39.549Z,68.45
2017-10-09T00:42:11.273Z,68.39
2017-10-09T00:42:42.921Z,68.39
2017-10-09T00:43:14.569Z,68.41
2017-10-09T00:43:46.221Z,68.40
2017-10-09T00:44:17.869Z,68.32
2017-10-09T00:44:49.517Z,68.31
2017-10-09T00:45:21.173Z,68.22
2017-10-09T00:45:52.817Z,68.26
2017-10-09T00:46:24.477Z,68.32
2017-10-09T00:46:56.346Z,68.21
2017-10-09T00:47:28.240Z,68.39
2017-10-09T00:47:59.893Z,68.26
2017-10-09T00:48:31.545Z,68.23
2017-10-09T00:49:03.217Z,68.45
2017-10-09T00:49:35.173Z,68.21
2017-10-09T00:50:06.837Z,68.26
2017-10-09T00:50:38.481Z,68.00
2017-10-09T00:51:10.125Z,67.90
2017-10-09T00:51:41.773Z,67.83
2017-10-09T00:52:13.417Z,67.61
2017-10-09T00:52:45.331Z,67.54
2017-10-09T00:53:16.977Z,67.50
2017-10-09T00:53:48.622Z,67.41
2017-10-09T00:54:20.273Z,67.30
2017-10-09T00:54:51.917Z,67.16
2017-10-09T00:55:23.845Z,67.22
2017-10-09T00:55:55.494Z,67.45
2017-10-09T00:56:27.148Z,67.01
2017-10-09T00:56:58.805Z,67.22
2017-10-09T00:57:30.449Z,67.06
2017-10-09T00:58:02.362Z,67.03
2017-10-09T00:58:34.015Z,66.90
2017-10-09T00:59:05.657Z,67.35
2017-10-09T00:59:37.553Z,66.99
2017-10-09T01:00:09.237Z,66.91
2017-10-09T01:00:40.887Z,67.12
2017-10-09T01:01:12.541Z,67.18
2017-10-09T01:01:44.189Z,66.67
2017-10-09T01:02:15.837Z,66.73
2017-10-09T01:02:47.486Z,66.89
2017-10-09T01:03:19.173Z,66.66
2017-10-09T01:03:51.037Z,66.68
2017-10-09T01:04:22.734Z,66.57
2017-10-09T01:04:54.381Z,66.58
2017-10-09T01:05:26.029Z,66.61
2017-10-09T01:05:57.912Z,66.40
2017-10-09T01:06:29.561Z,66.63
2017-10-09T01:07:01.213Z,66.33
2017-10-09T01:07:32.862Z,66.27
2017-10-09T01:08:04.508Z,66.32
2017-10-09T01:08:36.158Z,66.34
2017-10-09T01:09:07.809Z,66.24
2017-10-09T01:09:39.468Z,66.19
2017-10-09T01:10:11.355Z,66.14
2017-10-09T01:10:43.005Z,66.25
2017-10-09T01:11:14.649Z,66.32
2017-10-09T01:11:46.297Z,66.59
2017-10-09T01:12:17.937Z,66.23
2017-10-09T01:12:49.587Z,66.21
2017-10-09T01:13:21.237Z,66.31
2017-10-09T01:13:52.877Z,66.09
2017-10-09T01:14:24.525Z,66.15
2017-10-09T01:14:56.410Z,66.31
2017-10-09T01:15:28.080Z,66.37
2017-10-09T01:15:59.730Z,66.11
2017-10-09T01:16:31.666Z,66.19
2017-10-09T01:17:03.503Z,66.23
2017-10-09T01:17:35.262Z,66.20
2017-10-09T01:18:06.915Z,66.09
2017-10-09T01:18:38.561Z,66.19
2017-10-09T01:19:10.213Z,66.48
2017-10-09T01:19:41.873Z,66.27
2017-10-09T01:20:13.769Z,66.22
2017-10-09T01:20:45.728Z,65.87
2017-10-09T01:21:17.381Z,66.13
2017-10-09T01:21:49.033Z,66.29
2017-10-09T01:22:20.962Z,66.28
2017-10-09T01:22:52.786Z,66.37
2017-10-09T01:23:24.551Z,66.08
2017-10-09T01:23:56.205Z,65.68
2017-10-09T01:24:27.860Z,65.82
2017-10-09T01:24:59.501Z,65.81
2017-10-09T01:25:31.193Z,65.98
2017-10-09T01:26:03.101Z,66.12
2017-10-09T01:26:34.899Z,66.00
2017-10-09T01:27:06.660Z,66.11
2017-10-09T01:27:38.522Z,66.24
2017-10-09T01:28:10.187Z,66.30
2017-10-09T01:28:42.193Z,66.57
2017-10-09T01:29:14.044Z,66.62
2017-10-09T01:29:45.791Z,66.37
2017-10-09T01:30:17.441Z,66.67
2017-10-09T01:30:49.089Z,66.59
2017-10-09T01:31:20.733Z,66.81
2017-10-09T01:31:52.377Z,66.69
2017-10-09T01:32:24.025Z,66.82
2017-10-09T01:32:55.949Z,66.59
2017-10-09T01:33:27.829Z,66.59
2017-10-09T01:33:59.477Z,66.59
2017-10-09T01:34:31.183Z,66.56
2017-10-09T01:35:02.834Z,66.92
2017-10-09T01:35:34.525Z,66.80
2017-10-09T01:36:06.169Z,67.01
2017-10-09T01:36:38.021Z,66.95
2017-10-09T01:37:09.696Z,66.82
2017-10-09T01:37:41.349Z,66.74
2017-10-09T01:38:13.001Z,66.77
2017-10-09T01:38:44.649Z,66.94
2017-10-09T01:39:16.293Z,67.06
2017-10-09T01:39:47.937Z,67.02
2017-10-09T01:40:19.854Z,67.08
2017-10-09T01:40:51.546Z,66.95
2017-10-09T01:41:23.201Z,66.96
2017-10-09T01:41:54.849Z,66.90
2017-10-09T01:42:26.729Z,66.91
2017-10-09T01:42:58.682Z,66.87
2017-10-09T01:43:30.365Z,66.79
2017-10-09T01:44:02.014Z,66.98
2017-10-09T01:44:33.665Z,66.93
2017-10-09T01:45:05.313Z,66.96
2017-10-09T01:45:37.172Z,66.97
2017-10-09T01:46:08.869Z,67.03
2017-10-09T01:46:40.513Z,66.99
2017-10-09T01:47:12.435Z,67.10
2017-10-09T01:47:44.089Z,67.12
2017-10-09T01:48:15.737Z,67.10
2017-10-09T01:48:47.382Z,67.17
2017-10-09T01:49:19.307Z,67.25
2017-10-09T01:49:50.957Z,67.29
2017-10-09T01:50:22.858Z,67.29
2017-10-09T01:50:54.535Z,67.27
2017-10-09T01:51:26.221Z,67.28
2017-10-09T01:51:57.869Z,67.36
2017-10-09T01:52:29.530Z,67.38
2017-10-09T01:53:01.221Z,67.37
2017-10-09T01:53:32.872Z,67.36
2017-10-09T01:54:04.513Z,67.43
2017-10-09T01:54:36.157Z,67.39
2017-10-09T01:55:07.800Z,67.36
2017-10-09T01:55:39.486Z,67.34
2017-10-09T01:56:11.266Z,67.38
2017-10-09T01:56:42.964Z,67.49
2017-10-09T01:57:14.617Z,67.52
2017-10-09T01:57:46.459Z,67.57
2017-10-09T01:58:18.140Z,67.55
2017-10-09T01:58:49.789Z,67.53
2017-10-09T01:59:21.577Z,67.48
2017-10-09T01:59:53.225Z,67.51
2017-10-09T02:00:24.874Z,67.50
2017-10-09T02:00:56.526Z,67.49
2017-10-09T02:01:28.299Z,67.52
2017-10-09T02:02:00.004Z,67.51
2017-10-09T02:02:31.657Z,67.53
2017-10-09T02:03:03.531Z,67.47
2017-10-09T02:03:35.181Z,67.52
2017-10-09T02:04:07.014Z,67.46
2017-10-09T02:04:38.765Z,67.51
2017-10-09T02:05:10.414Z,67.46
2017-10-09T02:05:42.069Z,67.46
2017-10-09T02:06:13.721Z,67.45
2017-10-09T02:06:45.370Z,67.47
2017-10-09T02:07:17.074Z,67.52
2017-10-09T02:07:48.725Z,67.49
2017-10-09T02:08:20.377Z,67.55
2017-10-09T02:08:52.023Z,67.54
2017-10-09T02:09:23.677Z,67.55
2017-10-09T02:09:55.325Z,67.56
2017-10-09T02:10:26.973Z,67.64
2017-10-09T02:10:58.626Z,67.62
2017-10-09T02:11:30.277Z,67.66
2017-10-09T02:12:02.059Z,67.62
2017-10-09T02:12:33.745Z,67.60
2017-10-09T02:13:05.393Z,67.62
2017-10-09T02:13:37.041Z,67.58
2017-10-09T02:14:08.685Z,67.62
2017-10-09T02:14:40.509Z,67.63
2017-10-09T02:15:12.217Z,67.65
2017-10-09T02:15:44.166Z,67.62
2017-10-09T02:16:16.115Z,67.60
2017-10-09T02:16:48.064Z,67.58
2017-10-09T02:17:19.717Z,67.56
2017-10-09T02:17:51.651Z,67.56
2017-10-09T02:18:23.423Z,67.54
2017-10-09T02:18:55.069Z,67.49
2017-10-09T02:19:26.713Z,67.52
2017-10-09T02:19:58.357Z,67.51
2017-10-09T02:20:31.009Z,67.45
2017-10-09T02:21:02.656Z,67.53
2017-10-09T02:21:34.305Z,67.55
2017-10-09T02:22:05.955Z,67.51
2017-10-09T02:22:37.605Z,67.42
2017-10-09T02:23:09.611Z,67.41
2017-10-09T02:23:41.260Z,67.32
2017-10-09T02:24:12.925Z,67.32
2017-10-09T02:24:44.843Z,67.27
2017-10-09T02:25:16.501Z,67.28
2017-10-09T02:25:48.149Z,67.34
2017-10-09T02:26:19.839Z,67.28
2017-10-09T02:26:51.549Z,67.22
2017-10-09T02:27:23.194Z,67.12
2017-10-09T02:27:54.845Z,67.01
2017-10-09T02:28:26.536Z,66.90
2017-10-09T02:28:58.201Z,66.96
2017-10-09T02:29:29.862Z,66.89
2017-10-09T02:30:01.507Z,66.92
2017-10-09T02:30:33.161Z,66.81
2017-10-09T02:31:04.805Z,66.66
2017-10-09T02:31:36.495Z,66.71
2017-10-09T02:32:08.197Z,66.65
2017-10-09T02:32:40.088Z,66.60
2017-10-09T02:33:11.738Z,66.44
2017-10-09T02:33:43.386Z,66.50
2017-10-09T02:34:15.034Z,66.43
2017-10-09T02:34:46.677Z,66.50
2017-10-09T02:35:18.524Z,66.46
2017-10-09T02:35:50.246Z,66.34
2017-10-09T02:36:21.897Z,66.66
2017-10-09T02:36:53.551Z,65.87
2017-10-09T02:37:25.245Z,66.22
2017-10-09T02:37:57.121Z,60.13
2017-10-09T02:38:28.774Z,56.15
2017-10-09T02:39:00.425Z,54.15
2017-10-09T02:39:32.247Z,52.40
2017-10-09T02:40:03.995Z,50.48
2017-10-09T02:40:35.840Z,50.27
2017-10-09T02:41:07.530Z,49.66
2017-10-09T02:41:39.181Z,48.02
2017-10-09T02:42:10.870Z,47.54
2017-10-09T02:42:42.820Z,46.21
2017-10-09T02:43:14.469Z,45.90
2017-10-09T02:43:46.118Z,45.76
2017-10-09T02:44:18.054Z,45.46
2017-10-09T02:44:49.718Z,45.09
2017-10-09T02:45:21.642Z,44.36
2017-10-09T02:45:53.300Z,44.77
2017-10-09T02:46:25.129Z,44.75
2017-10-09T02:46:56.789Z,45.95
2017-10-09T02:47:28.441Z,48.61
2017-10-09T02:48:00.089Z,52.76
2017-10-09T02:48:31.735Z,50.59
2017-10-09T02:49:03.386Z,51.75
2017-10-09T02:49:35.097Z,51.95
2017-10-09T02:50:06.749Z,51.62
2017-10-09T02:50:38.400Z,51.72
2017-10-09T02:51:10.314Z,51.91
2017-10-09T02:51:42.151Z,52.36
2017-10-09T02:52:13.815Z,52.50
2017-10-09T02:52:45.461Z,52.21
2017-10-09T02:53:17.105Z,52.07
2017-10-09T02:53:48.752Z,52.32
2017-10-09T02:54:20.398Z,52.66
2017-10-09T02:54:52.119Z,52.62
2017-10-09T02:55:23.959Z,53.02
2017-10-09T02:55:55.709Z,53.06
2017-10-09T02:56:27.397Z,53.10
2017-10-09T02:56:59.053Z,53.05
2017-10-09T02:57:30.941Z,53.24
2017-10-09T02:58:02.783Z,53.38
2017-10-09T02:58:34.533Z,53.53
2017-10-09T02:59:06.237Z,53.35
2017-10-09T02:59:38.078Z,53.60
2017-10-09T03:00:09.733Z,53.84
2017-10-09T03:00:41.404Z,54.07
2017-10-09T03:01:13.298Z,54.23
2017-10-09T03:01:44.954Z,54.32
2017-10-09T03:02:16.601Z,54.63
2017-10-09T03:02:48.250Z,54.66
2017-10-09T03:03:19.905Z,54.70
2017-10-09T03:03:51.566Z,54.62
2017-10-09T03:04:23.272Z,54.80
2017-10-09T03:04:55.157Z,54.84
2017-10-09T03:05:26.806Z,54.94
2017-10-09T03:05:58.468Z,55.02
2017-10-09T03:06:30.121Z,55.12
2017-10-09T03:07:01.765Z,55.24
2017-10-09T03:07:33.654Z,55.30
2017-10-09T03:08:05.305Z,55.42
2017-10-09T03:08:36.958Z,55.37
2017-10-09T03:09:08.906Z,55.61
2017-10-09T03:09:40.558Z,55.60
2017-10-09T03:10:12.209Z,55.78
2017-10-09T03:10:43.858Z,55.92
2017-10-09T03:11:15.509Z,55.99
2017-10-09T03:11:47.157Z,56.15
2017-10-09T03:12:18.809Z,56.24
2017-10-09T03:12:50.457Z,56.29
2017-10-09T03:13:22.105Z,56.33
2017-10-09T03:13:53.883Z,56.56
2017-10-09T03:14:25.541Z,56.52
2017-10-09T03:14:57.275Z,56.60
2017-10-09T03:15:28.946Z,56.69
2017-10-09T03:16:00.593Z,56.77
2017-10-09T03:16:32.237Z,56.89
2017-10-09T03:17:03.893Z,56.96
2017-10-09T03:17:35.546Z,57.03
2017-10-09T03:18:07.245Z,57.04
2017-10-09T03:18:38.893Z,57.32
2017-10-09T03:19:10.537Z,57.36
2017-10-09T03:19:42.190Z,57.37
2017-10-09T03:20:13.858Z,57.40
2017-10-09T03:20:45.643Z,57.49
2017-10-09T03:21:17.303Z,57.60
2017-10-09T03:21:49.234Z,57.65
2017-10-09T03:22:38.633Z,57.72
2017-10-09T03:23:14.174Z,57.94
2017-10-09T03:24:01.557Z,58.00
2017-10-09T03:24:36.157Z,58.19
2017-10-09T03:25:22.706Z,58.28
2017-10-09T03:25:57.146Z,58.41
2017-10-09T03:26:28.797Z,58.56
2017-10-09T03:27:00.452Z,58.54
2017-10-09T03:27:32.114Z,58.66
2017-10-09T03:28:04.633Z,58.84
2017-10-09T03:28:53.174Z,58.88
2017-10-09T03:29:25.123Z,59.04
2017-10-09T03:29:57.297Z,59.20
2017-10-09T03:30:28.958Z,59.25
2017-10-09T03:31:00.615Z,59.30
2017-10-09T03:31:32.273Z,59.43
2017-10-09T03:32:03.947Z,59.47
2017-10-09T03:32:35.790Z,59.52
2017-10-09T03:33:07.446Z,59.60
2017-10-09T03:33:39.094Z,59.70
2017-10-09T03:34:10.803Z,59.74
2017-10-09T03:34:42.771Z,59.73
2017-10-09T03:35:14.433Z,59.84
2017-10-09T03:35:46.085Z,59.91
2017-10-09T03:36:17.741Z,60.03
2017-10-09T03:36:49.594Z,60.07
2017-10-09T03:37:21.633Z,60.13
2017-10-09T03:37:53.291Z,60.20
2017-10-09T03:38:25.077Z,60.31
2017-10-09T03:38:56.741Z,60.29
2017-10-09T03:39:28.425Z,60.33
2017-10-09T03:40:00.073Z,60.42
2017-10-09T03:40:31.753Z,60.44
2017-10-09T03:41:03.412Z,60.43
2017-10-09T03:41:35.070Z,60.49
2017-10-09T03:42:06.773Z,60.51
2017-10-09T03:42:38.437Z,60.59
2017-10-09T03:43:10.089Z,60.63
2017-10-09T03:43:41.733Z,60.76
2017-10-09T03:44:13.384Z,60.68
2017-10-09T03:44:45.038Z,60.78
2017-10-09T03:45:16.697Z,60.84
2017-10-09T03:45:48.480Z,60.79
2017-10-09T03:46:20.134Z,60.80
2017-10-09T03:46:51.837Z,60.89
2017-10-09T03:47:23.713Z,60.92
2017-10-09T03:47:55.563Z,60.93
2017-10-09T03:48:27.212Z,60.91
2017-10-09T03:48:58.865Z,61.00
2017-10-09T03:49:30.525Z,61.12
2017-10-09T03:50:02.228Z,61.22
2017-10-09T03:50:34.072Z,61.20
2017-10-09T03:51:05.725Z,61.14
2017-10-09T03:51:37.373Z,61.08
2017-10-09T03:52:09.103Z,61.25
2017-10-09T03:52:40.946Z,61.08
2017-10-09T03:53:12.695Z,61.24
2017-10-09T03:53:44.357Z,61.36
2017-10-09T03:54:16.006Z,61.29
2017-10-09T03:54:47.652Z,61.42
2017-10-09T03:55:19.297Z,61.54
2017-10-09T03:55:50.944Z,61.56
2017-10-09T03:56:22.597Z,61.70
2017-10-09T03:56:54.245Z,61.66
2017-10-09T03:57:25.941Z,61.68
2017-10-09T03:57:57.589Z,61.76
2017-10-09T03:58:29.237Z,61.83
2017-10-09T03:59:00.889Z,61.79
2017-10-09T03:59:32.537Z,61.82
2017-10-09T04:00:04.218Z,61.81
2017-10-09T04:00:35.989Z,61.87
2017-10-09T04:01:07.872Z,61.96
2017-10-09T04:01:39.522Z,61.97
2017-10-09T04:02:11.169Z,61.99
2017-10-09T04:02:42.819Z,61.99
2017-10-09T04:03:14.465Z,62.06
2017-10-09T04:03:46.147Z,62.15
2017-10-09T04:04:17.838Z,62.18
2017-10-09T04:04:49.490Z,62.20
2017-10-09T04:05:21.381Z,62.29
2017-10-09T04:05:53.081Z,62.27
2017-10-09T04:06:24.731Z,62.35
2017-10-09T04:06:56.580Z,62.35
2017-10-09T04:07:28.254Z,62.26
2017-10-09T04:08:00.077Z,62.13
2017-10-09T04:08:31.846Z,62.31
2017-10-09T04:09:03.506Z,62.45
2017-10-09T04:09:35.150Z,62.43
2017-10-09T04:10:06.793Z,62.45
2017-10-09T04:10:38.400Z,62.48
2017-10-09T04:11:10.096Z,62.45
2017-10-09T04:11:41.742Z,62.52
2017-10-09T04:12:13.389Z,62.52
2017-10-09T04:12:45.263Z,62.38
2017-10-09T04:13:17.238Z,62.50
2017-10-09T04:13:48.893Z,62.55
2017-10-09T04:14:20.541Z,62.48
2017-10-09T04:14:52.190Z,62.58
2017-10-09T04:15:23.836Z,62.51
2017-10-09T04:15:55.754Z,62.64
2017-10-09T04:16:27.453Z,62.60
2017-10-09T04:16:59.100Z,62.69
2017-10-09T04:17:30.753Z,62.52
2017-10-09T04:18:02.630Z,62.62
2017-10-09T04:18:34.281Z,62.59
2017-10-09T04:19:05.929Z,62.68
2017-10-09T04:19:37.577Z,62.69
2017-10-09T04:20:09.225Z,62.71
2017-10-09T04:20:40.873Z,62.78
2017-10-09T04:21:12.516Z,62.67
2017-10-09T04:21:44.412Z,62.66
2017-10-09T04:22:16.068Z,62.70
2017-10-09T04:22:47.712Z,62.71
2017-10-09T04:23:19.607Z,62.73
2017-10-09T04:23:51.270Z,62.76
2017-10-09T04:24:22.946Z,62.73
2017-10-09T04:24:54.777Z,62.78
2017-10-09T04:25:26.425Z,62.82
2017-10-09T04:25:58.188Z,62.83
2017-10-09T04:26:29.841Z,62.83
2017-10-09T04:27:01.773Z,62.78
2017-10-09T04:27:33.420Z,62.76
2017-10-09T04:28:05.069Z,62.85
2017-10-09T04:28:36.722Z,62.79
2017-10-09T04:29:08.377Z,62.86
2017-10-09T04:29:40.025Z,62.91
2017-10-09T04:30:11.682Z,62.89
2017-10-09T04:30:43.571Z,62.88
2017-10-09T04:31:15.225Z,62.93
2017-10-09T04:31:47.158Z,62.93
2017-10-09T04:32:18.862Z,62.98
2017-10-09T04:32:50.754Z,62.98
2017-10-09T04:33:22.402Z,62.88
2017-10-09T04:33:54.054Z,62.92
2017-10-09T04:34:25.987Z,62.99
2017-10-09T04:34:57.823Z,62.98
2017-10-09T04:35:29.578Z,63.01
2017-10-09T04:36:01.229Z,63.01
2017-10-09T04:36:32.881Z,63.01
2017-10-09T04:37:04.521Z,62.96
2017-10-09T04:37:36.170Z,63.12
2017-10-09T04:38:08.064Z,63.02
2017-10-09T04:38:39.732Z,63.10
2017-10-09T04:39:11.560Z,62.96
2017-10-09T04:39:43.328Z,63.04
2017-10-09T04:40:15.275Z,63.10
2017-10-09T04:40:47.224Z,63.12
2017-10-09T04:41:19.104Z,63.08
2017-10-09T04:41:50.754Z,63.05
2017-10-09T04:42:22.402Z,63.04
2017-10-09T04:42:54.098Z,63.01
2017-10-09T04:43:25.747Z,63.03
2017-10-09T04:43:57.546Z,63.00
2017-10-09T04:44:29.332Z,62.98
2017-10-09T04:45:01.021Z,62.88
2017-10-09T04:45:32.675Z,62.94
2017-10-09T04:46:04.583Z,62.94
2017-10-09T04:46:36.250Z,62.85
2017-10-09T04:47:07.897Z,62.84
2017-10-09T04:47:39.549Z,62.84
2017-10-09T04:48:11.197Z,62.78
2017-10-09T04:48:43.082Z,62.75
2017-10-09T04:49:14.931Z,62.70
2017-10-09T04:49:46.670Z,62.67
2017-10-09T04:50:18.621Z,62.65
2017-10-09T04:50:50.571Z,62.65
2017-10-09T04:51:22.474Z,62.59
2017-10-09T04:51:54.125Z,62.57
2017-10-09T04:52:25.804Z,62.55
2017-10-09T04:52:57.469Z,62.57
2017-10-09T04:53:29.113Z,62.45
2017-10-09T04:54:00.757Z,62.38
2017-10-09T04:54:32.679Z,62.38
2017-10-09T04:55:04.365Z,62.35
2017-10-09T04:55:36.025Z,62.31
2017-10-09T04:56:07.861Z,62.25
2017-10-09T04:56:39.509Z,62.23
2017-10-09T04:57:11.195Z,62.20
2017-10-09T04:57:43.030Z,62.24
2017-10-09T04:58:14.786Z,62.19
2017-10-09T04:58:46.736Z,62.15
2017-10-09T04:59:18.437Z,62.20
2017-10-09T04:59:50.085Z,62.17
2017-10-09T05:00:21.740Z,62.10
2017-10-09T05:00:53.610Z,62.04
2017-10-09T05:01:25.262Z,61.99
2017-10-09T05:01:56.916Z,61.97
2017-10-09T05:02:28.564Z,62.01
2017-10-09T05:03:00.209Z,61.94
2017-10-09T05:03:32.024Z,61.91
2017-10-09T05:04:03.674Z,61.90
2017-10-09T05:04:35.317Z,61.90
2017-10-09T05:05:06.964Z,61.88
2017-10-09T05:05:38.609Z,61.85
2017-10-09T05:06:10.257Z,61.82
2017-10-09T05:06:41.978Z,61.80
2017-10-09T05:07:13.676Z,61.80
2017-10-09T05:07:45.325Z,61.72
2017-10-09T05:08:17.212Z,61.74
2017-10-09T05:08:48.862Z,61.70
2017-10-09T05:09:20.517Z,61.68
2017-10-09T05:09:52.166Z,61.64
2017-10-09T05:10:23.815Z,61.60
2017-10-09T05:10:55.482Z,61.67
2017-10-09T05:11:27.134Z,61.60
2017-10-09T05:11:59.012Z,61.55
2017-10-09T05:12:30.714Z,61.55
2017-10-09T05:13:02.603Z,61.59
2017-10-09T05:13:34.257Z,61.63
2017-10-09T05:14:05.901Z,61.63
2017-10-09T05:14:37.545Z,61.65
2017-10-09T05:15:09.192Z,61.68
2017-10-09T05:15:40.841Z,61.62
2017-10-09T05:16:12.758Z,61.66
2017-10-09T05:16:44.624Z,61.67
2017-10-09T05:17:16.289Z,61.66
2017-10-09T05:17:48.221Z,61.65
2017-10-09T05:18:19.866Z,61.68
2017-10-09T05:18:51.513Z,61.69
2017-10-09T05:19:23.431Z,61.68
2017-10-09T05:19:55.081Z,61.66
2017-10-09T05:20:26.726Z,61.64
2017-10-09T05:20:58.384Z,61.66
2017-10-09T05:21:30.030Z,61.66
2017-10-09T05:22:01.684Z,61.73
2017-10-09T05:22:33.386Z,61.74
2017-10-09T05:23:05.073Z,61.83
2017-10-09T05:23:36.721Z,61.86
2017-10-09T05:24:08.368Z,61.89
2017-10-09T05:24:40.256Z,61.83
2017-10-09T05:25:11.909Z,61.82
2017-10-09T05:25:43.553Z,61.94
2017-10-09T05:26:15.206Z,62.01
2017-10-09T05:26:46.857Z,62.07
2017-10-09T05:27:18.545Z,62.08
2017-10-09T05:27:50.393Z,62.12
2017-10-09T05:28:22.060Z,62.16
2017-10-09T05:28:53.713Z,62.19
2017-10-09T05:29:25.365Z,62.17
2017-10-09T05:29:57.013Z,62.19
2017-10-09T05:30:28.657Z,62.29
2017-10-09T05:31:00.302Z,62.36
2017-10-09T05:31:31.945Z,62.35
2017-10-09T05:32:03.594Z,62.38
2017-10-09T05:32:35.479Z,62.44
2017-10-09T05:33:07.143Z,62.39
2017-10-09T05:33:38.797Z,62.46
2017-10-09T05:34:10.631Z,62.49
2017-10-09T05:34:42.381Z,62.55
2017-10-09T05:35:14.037Z,62.53
2017-10-09T05:35:45.722Z,62.59
2017-10-09T05:36:17.611Z,62.65
2017-10-09T05:36:49.261Z,62.61
2017-10-09T05:37:20.910Z,62.62
2017-10-09T05:37:52.592Z,62.64
2017-10-09T05:38:24.249Z,62.69
2017-10-09T05:38:56.128Z,62.72
2017-10-09T05:39:27.777Z,62.73
2017-10-09T05:39:59.428Z,62.74
2017-10-09T05:40:31.130Z,62.80
2017-10-09T05:41:02.954Z,62.81
2017-10-09T05:41:34.604Z,62.82
2017-10-09T05:42:06.287Z,62.79
2017-10-09T05:42:38.236Z,62.81
2017-10-09T05:43:09.885Z,62.77
2017-10-09T05:43:41.529Z,62.78
2017-10-09T05:44:13.182Z,62.84
2017-10-09T05:44:44.829Z,62.79
2017-10-09T05:45:16.477Z,62.78
2017-10-09T05:45:48.367Z,62.85
2017-10-09T05:46:20.033Z,62.79
2017-10-09T05:46:51.985Z,62.71
2017-10-09T05:47:23.665Z,62.94
2017-10-09T05:47:55.316Z,62.89
2017-10-09T05:48:26.964Z,62.95
2017-10-09T05:48:58.614Z,63.03
2017-10-09T05:49:30.502Z,63.01
2017-10-09T05:50:02.181Z,63.10
2017-10-09T05:50:33.829Z,63.04
2017-10-09T05:51:05.735Z,63.08
2017-10-09T05:51:37.597Z,63.18
2017-10-09T05:52:09.250Z,63.17
2017-10-09T05:52:40.964Z,63.19
2017-10-09T05:53:12.641Z,63.20
2017-10-09T05:53:44.289Z,63.24
2017-10-09T05:54:15.938Z,63.26
2017-10-09T05:54:47.843Z,63.27
2017-10-09T05:55:19.492Z,63.25
2017-10-09T05:55:51.137Z,63.25
2017-10-09T05:56:22.781Z,63.19
2017-10-09T05:56:54.424Z,63.20
2017-10-09T05:57:26.074Z,63.22
2017-10-09T05:57:58.001Z,63.24
2017-10-09T05:58:29.833Z,63.27
2017-10-09T05:59:01.592Z,63.28
2017-10-09T05:59:33.282Z,63.29
2017-10-09T06:00:04.933Z,63.25
2017-10-09T06:00:36.581Z,63.29
2017-10-09T06:01:08.420Z,63.23
2017-10-09T06:01:40.068Z,63.35
2017-10-09T06:02:11.726Z,63.28
2017-10-09T06:02:43.393Z,63.24
2017-10-09T06:03:15.081Z,63.34
2017-10-09T06:03:46.729Z,63.34
2017-10-09T06:04:18.612Z,63.42
2017-10-09T06:04:50.267Z,63.33
2017-10-09T06:05:22.132Z,63.37
2017-10-09T06:05:53.781Z,63.36
2017-10-09T06:06:25.429Z,63.33
2017-10-09T06:06:57.074Z,63.32
2017-10-09T06:07:28.720Z,63.41
2017-10-09T06:08:00.367Z,63.33
2017-10-09T06:08:32.018Z,63.42
2017-10-09T06:09:03.669Z,63.48
2017-10-09T06:09:35.365Z,63.48
2017-10-09T06:10:07.413Z,63.41
2017-10-09T06:10:39.065Z,63.43
2017-10-09T06:11:10.713Z,63.48
2017-10-09T06:11:42.361Z,63.44
2017-10-09T06:12:14.009Z,63.46
2017-10-09T06:12:45.662Z,63.43
2017-10-09T06:13:17.316Z,63.40
2017-10-09T06:13:48.972Z,63.45
2017-10-09T06:14:20.745Z,63.44
2017-10-09T06:14:52.437Z,63.44
2017-10-09T06:15:24.081Z,63.46
2017-10-09T06:15:55.729Z,63.43
2017-10-09T06:16:27.575Z,63.44
2017-10-09T06:16:59.258Z,63.42
2017-10-09T06:17:31.212Z,63.41
2017-10-09T06:18:02.864Z,63.45
2017-10-09T06:18:34.553Z,63.43
2017-10-09T06:19:06.200Z,63.42
2017-10-09T06:19:38.041Z,63.37
2017-10-09T06:20:09.689Z,63.42
2017-10-09T06:20:41.337Z,63.37
2017-10-09T06:21:13.009Z,63.31
2017-10-09T06:21:44.662Z,63.27
2017-10-09T06:22:16.313Z,63.22
2017-10-09T06:22:47.961Z,63.23
2017-10-09T06:23:19.613Z,63.18
2017-10-09T06:23:51.527Z,63.17
2017-10-09T06:24:23.401Z,63.13
2017-10-09T06:24:55.061Z,63.05
2017-10-09T06:25:26.759Z,63.01
2017-10-09T06:25:58.414Z,62.96
2017-10-09T06:26:30.057Z,62.89
2017-10-09T06:27:01.705Z,62.87
2017-10-09T06:27:33.361Z,62.80
2017-10-09T06:28:05.244Z,62.74
2017-10-09T06:28:36.914Z,62.75
2017-10-09T06:29:08.713Z,62.70
2017-10-09T06:29:40.366Z,62.70
2017-10-09T06:30:12.151Z,62.64
2017-10-09T06:30:43.801Z,62.60
2017-10-09T06:31:15.441Z,62.51
2017-10-09T06:31:47.092Z,62.48
2017-10-09T06:32:18.737Z,62.45
2017-10-09T06:32:50.381Z,62.39
2017-10-09T06:33:22.033Z,62.32
2017-10-09T06:33:53.682Z,62.21
2017-10-09T06:34:25.325Z,62.19
2017-10-09T06:34:56.973Z,62.17
2017-10-09T06:35:28.877Z,62.11
2017-10-09T06:36:00.830Z,62.01
2017-10-09T06:36:32.481Z,61.95
2017-10-09T06:37:04.129Z,61.92
2017-10-09T06:37:35.821Z,61.90
2017-10-09T06:38:07.665Z,61.84
2017-10-09T06:38:39.339Z,61.81
2017-10-09T06:39:11.026Z,61.81
2017-10-09T06:39:42.673Z,61.79
2017-10-09T06:40:14.332Z,61.79
2017-10-09T06:40:46.030Z,61.76
2017-10-09T06:41:17.686Z,61.71
2017-10-09T06:41:49.333Z,61.68
2017-10-09T06:42:20.986Z,61.71
2017-10-09T06:42:52.785Z,61.72
2017-10-09T06:43:24.620Z,61.73
2017-10-09T06:43:56.376Z,61.66
2017-10-09T06:44:28.029Z,61.66
2017-10-09T06:44:59.681Z,61.64
2017-10-09T06:45:31.329Z,61.64
2017-10-09T06:46:03.251Z,61.67
2017-10-09T06:46:34.900Z,61.64
2017-10-09T06:47:06.545Z,61.70
2017-10-09T06:47:38.191Z,61.65
2017-10-09T06:48:09.834Z,61.66
2017-10-09T06:48:41.480Z,61.67
2017-10-09T06:49:13.125Z,61.66
2017-10-09T06:49:44.778Z,61.66